sensor_id;sensor_type;location;lat;lon;timestamp;temperature;humidity
5930;DHT22;2990;48.746;9.236;2023-04-25T00:00:35;7.50;1.00
5930;DHT22;2990;48.746;9.236;2023-04-25T00:03:01;7.60;99.90
5930;DHT22;2990;48.746;9.236;2023-04-25T00:05:27;7.50;1.00
5930;DHT22;2990;48.746;9.236;2023-04-25T00:07:52;7.50;1.00
5930;DHT22;2990;48.746;9.236;2023-04-25T00:10:20;7.50;1.00
5930;DHT22;2990;48.746;9.236;2023-04-25T00:12:46;7.50;1.00
5930;DHT22;2990;48.746;9.236;2023-04-25T00:15:12;7.50;26.90
5930;DHT22;2990;48.746;9.236;2023-04-25T00:17:37;7.70;1.00
5930;DHT22;2990;48.746;9.236;2023-04-25T00:20:04;7.50;1.00
5930;DHT22;2990;48.746;9.236;2023-04-25T00:22:31;7.50;99.90
5930;DHT22;2990;48.746;9.236;2023-04-25T00:24:56;7.50;99.90
5930;DHT22;2990;48.746;9.236;2023-04-25T00:27:25;7.40;1.00
5930;DHT22;2990;48.746;9.236;2023-04-25T00:29:51;7.40;99.90
5930;DHT22;2990;48.746;9.236;2023-04-25T00:32:17;7.50;99.90
5930;DHT22;2990;48.746;9.236;2023-04-25T00:34:42;7.40;1.00
5930;DHT22;2990;48.746;9.236;2023-04-25T00:37:08;7.40;96.50
5930;DHT22;2990;48.746;9.236;2023-04-25T00:39:33;7.40;99.90
5930;DHT22;2990;48.746;9.236;2023-04-25T00:42:00;7.40;1.00
5930;DHT22;2990;48.746;9.236;2023-04-25T00:44:27;7.40;99.90
5930;DHT22;2990;48.746;9.236;2023-04-25T00:46:55;7.40;99.90
5930;DHT22;2990;48.746;9.236;2023-04-25T00:49:20;7.40;99.90
5930;DHT22;2990;48.746;9.236;2023-04-25T00:51:46;7.40;1.00
5930;DHT22;2990;48.746;9.236;2023-04-25T00:54:12;7.40;99.90
5930;DHT22;2990;48.746;9.236;2023-04-25T00:56:38;7.40;1.00
5930;DHT22;2990;48.746;9.236;2023-04-25T00:59:04;7.40;99.90
5930;DHT22;2990;48.746;9.236;2023-04-25T01:01:31;7.40;99.90
5930;DHT22;2990;48.746;9.236;2023-04-25T01:03:58;7.30;7.50
5930;DHT22;2990;48.746;9.236;2023-04-25T01:06:24;7.40;1.00
5930;DHT22;2990;48.746;9.236;2023-04-25T01:08:51;7.40;1.00
5930;DHT22;2990;48.746;9.236;2023-04-25T01:11:17;7.30;1.00
5930;DHT22;2990;48.746;9.236;2023-04-25T01:13:42;7.40;1.00
5930;DHT22;2990;48.746;9.236;2023-04-25T01:16:08;7.40;1.00
5930;DHT22;2990;48.746;9.236;2023-04-25T01:18:34;7.50;1.00
5930;DHT22;2990;48.746;9.236;2023-04-25T01:21:09;7.50;99.90
5930;DHT22;2990;48.746;9.236;2023-04-25T01:23:36;7.50;99.90
5930;DHT22;2990;48.746;9.236;2023-04-25T01:26:02;7.50;1.00
5930;DHT22;2990;48.746;9.236;2023-04-25T01:28:28;7.50;1.00
5930;DHT22;2990;48.746;9.236;2023-04-25T01:30:54;7.70;1.00
5930;DHT22;2990;48.746;9.236;2023-04-25T01:33:21;7.50;99.90
5930;DHT22;2990;48.746;9.236;2023-04-25T01:35:47;7.40;99.90
5930;DHT22;2990;48.746;9.236;2023-04-25T01:38:13;7.40;99.90
5930;DHT22;2990;48.746;9.236;2023-04-25T01:40:40;7.40;1.00
5930;DHT22;2990;48.746;9.236;2023-04-25T01:43:09;7.50;1.00
5930;DHT22;2990;48.746;9.236;2023-04-25T01:45:40;7.30;1.00
5930;DHT22;2990;48.746;9.236;2023-04-25T01:48:08;7.50;26.00
5930;DHT22;2990;48.746;9.236;2023-04-25T01:50:33;7.20;99.90
5930;DHT22;2990;48.746;9.236;2023-04-25T01:52:59;7.30;99.90
5930;DHT22;2990;48.746;9.236;2023-04-25T01:55:25;7.30;99.90
5930;DHT22;2990;48.746;9.236;2023-04-25T01:57:51;7.30;99.90
5930;DHT22;2990;48.746;9.236;2023-04-25T02:00:17;7.30;99.90
5930;DHT22;2990;48.746;9.236;2023-04-25T02:02:42;7.30;99.90
5930;DHT22;2990;48.746;9.236;2023-04-25T02:05:08;7.30;99.90
5930;DHT22;2990;48.746;9.236;2023-04-25T02:07:34;7.20;1.00
5930;DHT22;2990;48.746;9.236;2023-04-25T02:09:59;7.20;99.90
5930;DHT22;2990;48.746;9.236;2023-04-25T02:12:25;7.10;99.90
5930;DHT22;2990;48.746;9.236;2023-04-25T02:14:51;7.20;99.90
5930;DHT22;2990;48.746;9.236;2023-04-25T02:17:17;7.10;99.90
5930;DHT22;2990;48.746;9.236;2023-04-25T02:19:43;7.10;99.90
5930;DHT22;2990;48.746;9.236;2023-04-25T02:22:09;7.20;99.90
5930;DHT22;2990;48.746;9.236;2023-04-25T02:24:35;7.10;1.00
5930;DHT22;2990;48.746;9.236;2023-04-25T02:27:01;7.00;1.00
5930;DHT22;2990;48.746;9.236;2023-04-25T02:29:27;7.10;99.90
5930;DHT22;2990;48.746;9.236;2023-04-25T02:31:52;6.90;99.90
5930;DHT22;2990;48.746;9.236;2023-04-25T02:34:18;7.00;1.00
5930;DHT22;2990;48.746;9.236;2023-04-25T02:36:43;7.00;1.00
5930;DHT22;2990;48.746;9.236;2023-04-25T02:39:09;6.90;1.00
5930;DHT22;2990;48.746;9.236;2023-04-25T02:41:35;6.90;1.00
5930;DHT22;2990;48.746;9.236;2023-04-25T02:44:01;6.90;1.00
5930;DHT22;2990;48.746;9.236;2023-04-25T02:46:26;6.90;99.90
5930;DHT22;2990;48.746;9.236;2023-04-25T02:48:52;6.90;99.90
5930;DHT22;2990;48.746;9.236;2023-04-25T02:51:17;6.90;99.90
5930;DHT22;2990;48.746;9.236;2023-04-25T02:53:44;6.90;1.00
5930;DHT22;2990;48.746;9.236;2023-04-25T02:56:09;6.90;99.90
5930;DHT22;2990;48.746;9.236;2023-04-25T02:58:35;6.90;44.50
5930;DHT22;2990;48.746;9.236;2023-04-25T03:01:01;6.90;99.90
5930;DHT22;2990;48.746;9.236;2023-04-25T03:03:26;6.80;99.90
5930;DHT22;2990;48.746;9.236;2023-04-25T03:05:52;6.70;1.00
5930;DHT22;2990;48.746;9.236;2023-04-25T03:08:18;6.80;1.00
5930;DHT22;2990;48.746;9.236;2023-04-25T03:10:44;6.80;1.00
5930;DHT22;2990;48.746;9.236;2023-04-25T03:13:10;6.80;1.00
5930;DHT22;2990;48.746;9.236;2023-04-25T03:15:37;6.80;99.90
5930;DHT22;2990;48.746;9.236;2023-04-25T03:18:03;6.80;1.00
5930;DHT22;2990;48.746;9.236;2023-04-25T03:20:29;6.70;99.90
5930;DHT22;2990;48.746;9.236;2023-04-25T03:22:55;6.80;99.90
5930;DHT22;2990;48.746;9.236;2023-04-25T03:25:21;6.80;99.90
5930;DHT22;2990;48.746;9.236;2023-04-25T03:27:46;6.80;1.00
5930;DHT22;2990;48.746;9.236;2023-04-25T03:30:12;6.80;1.00
5930;DHT22;2990;48.746;9.236;2023-04-25T03:32:38;6.80;1.00
5930;DHT22;2990;48.746;9.236;2023-04-25T03:35:04;6.70;1.00
5930;DHT22;2990;48.746;9.236;2023-04-25T03:37:30;6.70;99.90
5930;DHT22;2990;48.746;9.236;2023-04-25T03:39:56;6.70;1.00
5930;DHT22;2990;48.746;9.236;2023-04-25T03:42:21;6.70;1.00
5930;DHT22;2990;48.746;9.236;2023-04-25T03:44:48;6.70;1.00
5930;DHT22;2990;48.746;9.236;2023-04-25T03:47:14;6.60;77.30
5930;DHT22;2990;48.746;9.236;2023-04-25T03:49:41;6.70;99.90
5930;DHT22;2990;48.746;9.236;2023-04-25T03:52:07;6.60;99.90
5930;DHT22;2990;48.746;9.236;2023-04-25T03:54:32;6.60;99.90
5930;DHT22;2990;48.746;9.236;2023-04-25T03:56:58;6.50;1.00
5930;DHT22;2990;48.746;9.236;2023-04-25T03:59:24;6.60;1.00
5930;DHT22;2990;48.746;9.236;2023-04-25T04:01:50;6.60;1.00
5930;DHT22;2990;48.746;9.236;2023-04-25T04:04:16;6.60;1.00
5930;DHT22;2990;48.746;9.236;2023-04-25T04:06:41;6.60;1.00
5930;DHT22;2990;48.746;9.236;2023-04-25T04:09:07;6.70;1.00
5930;DHT22;2990;48.746;9.236;2023-04-25T04:11:36;6.50;1.00
5930;DHT22;2990;48.746;9.236;2023-04-25T04:14:07;6.60;1.00
5930;DHT22;2990;48.746;9.236;2023-04-25T04:16:32;6.50;1.00
5930;DHT22;2990;48.746;9.236;2023-04-25T04:18:58;6.50;1.00
5930;DHT22;2990;48.746;9.236;2023-04-25T04:21:24;6.50;1.00
5930;DHT22;2990;48.746;9.236;2023-04-25T04:23:50;6.50;1.00
5930;DHT22;2990;48.746;9.236;2023-04-25T04:26:15;6.50;1.00
5930;DHT22;2990;48.746;9.236;2023-04-25T04:28:43;6.60;1.00
5930;DHT22;2990;48.746;9.236;2023-04-25T04:31:10;6.60;1.00
5930;DHT22;2990;48.746;9.236;2023-04-25T04:33:36;6.50;1.00
5930;DHT22;2990;48.746;9.236;2023-04-25T04:36:02;6.50;1.00
5930;DHT22;2990;48.746;9.236;2023-04-25T04:38:28;6.60;1.00
5930;DHT22;2990;48.746;9.236;2023-04-25T04:40:54;6.60;1.00
5930;DHT22;2990;48.746;9.236;2023-04-25T04:43:21;6.70;1.00
5930;DHT22;2990;48.746;9.236;2023-04-25T04:45:48;6.60;1.00
5930;DHT22;2990;48.746;9.236;2023-04-25T04:48:15;6.70;2.20
5930;DHT22;2990;48.746;9.236;2023-04-25T04:50:43;6.60;4.80
5930;DHT22;2990;48.746;9.236;2023-04-25T04:53:10;6.70;1.00
5930;DHT22;2990;48.746;9.236;2023-04-25T04:55:35;6.70;1.00
5930;DHT22;2990;48.746;9.236;2023-04-25T04:58:01;6.70;1.00
5930;DHT22;2990;48.746;9.236;2023-04-25T05:00:27;6.70;1.00
5930;DHT22;2990;48.746;9.236;2023-04-25T05:02:54;6.90;1.00
5930;DHT22;2990;48.746;9.236;2023-04-25T05:05:20;6.80;1.00
5930;DHT22;2990;48.746;9.236;2023-04-25T05:07:46;6.80;1.00
5930;DHT22;2990;48.746;9.236;2023-04-25T05:10:11;6.80;1.00
5930;DHT22;2990;48.746;9.236;2023-04-25T05:12:37;6.80;1.00
5930;DHT22;2990;48.746;9.236;2023-04-25T05:15:03;6.80;1.00
5930;DHT22;2990;48.746;9.236;2023-04-25T05:17:28;6.80;1.00
5930;DHT22;2990;48.746;9.236;2023-04-25T05:19:54;6.80;1.00
5930;DHT22;2990;48.746;9.236;2023-04-25T05:22:19;6.80;1.00
5930;DHT22;2990;48.746;9.236;2023-04-25T05:24:45;6.90;1.00
5930;DHT22;2990;48.746;9.236;2023-04-25T05:27:11;6.90;1.00
5930;DHT22;2990;48.746;9.236;2023-04-25T05:29:36;7.10;1.00
5930;DHT22;2990;48.746;9.236;2023-04-25T05:32:02;7.10;1.00
5930;DHT22;2990;48.746;9.236;2023-04-25T05:34:28;7.10;99.90
5930;DHT22;2990;48.746;9.236;2023-04-25T05:36:53;7.10;99.90
5930;DHT22;2990;48.746;9.236;2023-04-25T05:39:19;7.20;99.90
5930;DHT22;2990;48.746;9.236;2023-04-25T05:41:44;7.20;99.90
5930;DHT22;2990;48.746;9.236;2023-04-25T05:44:10;7.30;1.00
5930;DHT22;2990;48.746;9.236;2023-04-25T05:46:36;7.30;1.00
5930;DHT22;2990;48.746;9.236;2023-04-25T05:49:01;7.40;1.00
5930;DHT22;2990;48.746;9.236;2023-04-25T05:51:27;7.40;1.00
5930;DHT22;2990;48.746;9.236;2023-04-25T05:53:53;7.60;1.00
5930;DHT22;2990;48.746;9.236;2023-04-25T05:56:18;7.70;53.00
5930;DHT22;2990;48.746;9.236;2023-04-25T05:58:44;7.80;1.00
5930;DHT22;2990;48.746;9.236;2023-04-25T06:01:10;8.00;1.00
5930;DHT22;2990;48.746;9.236;2023-04-25T06:03:35;8.10;1.00
5930;DHT22;2990;48.746;9.236;2023-04-25T06:06:03;8.10;8.50
5930;DHT22;2990;48.746;9.236;2023-04-25T06:08:28;8.00;99.90
5930;DHT22;2990;48.746;9.236;2023-04-25T06:10:54;8.00;99.90
5930;DHT22;2990;48.746;9.236;2023-04-25T06:13:20;7.80;1.00
5930;DHT22;2990;48.746;9.236;2023-04-25T06:15:45;7.80;99.90
5930;DHT22;2990;48.746;9.236;2023-04-25T06:18:11;7.70;99.90
5930;DHT22;2990;48.746;9.236;2023-04-25T06:20:37;7.60;1.00
5930;DHT22;2990;48.746;9.236;2023-04-25T06:23:02;7.60;99.90
5930;DHT22;2990;48.746;9.236;2023-04-25T06:25:28;7.60;99.90
5930;DHT22;2990;48.746;9.236;2023-04-25T06:27:53;7.60;99.90
5930;DHT22;2990;48.746;9.236;2023-04-25T06:30:19;7.60;99.90
5930;DHT22;2990;48.746;9.236;2023-04-25T06:32:47;7.60;99.90
5930;DHT22;2990;48.746;9.236;2023-04-25T06:35:13;7.60;1.00
5930;DHT22;2990;48.746;9.236;2023-04-25T06:37:39;7.60;99.90
5930;DHT22;2990;48.746;9.236;2023-04-25T06:40:05;7.70;1.00
5930;DHT22;2990;48.746;9.236;2023-04-25T06:42:30;7.80;1.00
5930;DHT22;2990;48.746;9.236;2023-04-25T06:44:56;7.70;99.90
5930;DHT22;2990;48.746;9.236;2023-04-25T06:47:22;7.80;99.90
5930;DHT22;2990;48.746;9.236;2023-04-25T06:49:47;7.70;1.00
5930;DHT22;2990;48.746;9.236;2023-04-25T06:52:13;7.90;1.00
5930;DHT22;2990;48.746;9.236;2023-04-25T06:54:38;7.70;1.00
5930;DHT22;2990;48.746;9.236;2023-04-25T06:57:04;7.90;1.00
5930;DHT22;2990;48.746;9.236;2023-04-25T06:59:29;7.70;1.00
5930;DHT22;2990;48.746;9.236;2023-04-25T07:01:55;7.70;1.00
5930;DHT22;2990;48.746;9.236;2023-04-25T07:04:20;7.70;58.10
5930;DHT22;2990;48.746;9.236;2023-04-25T07:06:46;7.60;99.90
5930;DHT22;2990;48.746;9.236;2023-04-25T07:09:13;7.60;1.00
5930;DHT22;2990;48.746;9.236;2023-04-25T07:11:39;7.50;1.00
5930;DHT22;2990;48.746;9.236;2023-04-25T07:14:04;7.50;99.90
5930;DHT22;2990;48.746;9.236;2023-04-25T07:16:30;7.50;1.00
5930;DHT22;2990;48.746;9.236;2023-04-25T07:18:55;7.40;1.00
5930;DHT22;2990;48.746;9.236;2023-04-25T07:21:21;7.40;5.70
5930;DHT22;2990;48.746;9.236;2023-04-25T07:23:47;7.30;99.90
5930;DHT22;2990;48.746;9.236;2023-04-25T07:26:12;7.30;1.00
5930;DHT22;2990;48.746;9.236;2023-04-25T07:28:38;7.20;1.00
5930;DHT22;2990;48.746;9.236;2023-04-25T07:31:04;7.20;1.00
5930;DHT22;2990;48.746;9.236;2023-04-25T07:33:30;7.70;1.00
5930;DHT22;2990;48.746;9.236;2023-04-25T07:35:56;7.20;1.00
5930;DHT22;2990;48.746;9.236;2023-04-25T07:38:22;7.20;1.00
5930;DHT22;2990;48.746;9.236;2023-04-25T07:40:48;7.30;1.00
5930;DHT22;2990;48.746;9.236;2023-04-25T07:43:14;7.20;1.00
5930;DHT22;2990;48.746;9.236;2023-04-25T07:45:42;7.20;1.00
5930;DHT22;2990;48.746;9.236;2023-04-25T07:48:08;7.20;1.00
5930;DHT22;2990;48.746;9.236;2023-04-25T07:50:34;7.20;1.00
5930;DHT22;2990;48.746;9.236;2023-04-25T07:52:59;7.10;1.00
5930;DHT22;2990;48.746;9.236;2023-04-25T07:55:25;7.10;1.00
5930;DHT22;2990;48.746;9.236;2023-04-25T07:57:50;7.10;1.00
5930;DHT22;2990;48.746;9.236;2023-04-25T08:00:16;7.10;1.00
5930;DHT22;2990;48.746;9.236;2023-04-25T08:02:41;7.00;1.00
5930;DHT22;2990;48.746;9.236;2023-04-25T08:05:07;7.10;1.00
5930;DHT22;2990;48.746;9.236;2023-04-25T08:07:37;7.00;1.00
5930;DHT22;2990;48.746;9.236;2023-04-25T08:10:03;7.10;1.00
5930;DHT22;2990;48.746;9.236;2023-04-25T08:12:28;7.10;1.00
5930;DHT22;2990;48.746;9.236;2023-04-25T08:14:54;7.00;1.00
5930;DHT22;2990;48.746;9.236;2023-04-25T08:17:20;7.00;1.00
5930;DHT22;2990;48.746;9.236;2023-04-25T08:19:45;7.00;1.00
5930;DHT22;2990;48.746;9.236;2023-04-25T08:22:11;6.90;1.00
5930;DHT22;2990;48.746;9.236;2023-04-25T08:24:37;7.00;1.00
5930;DHT22;2990;48.746;9.236;2023-04-25T08:27:03;6.90;1.00
5930;DHT22;2990;48.746;9.236;2023-04-25T08:29:29;6.90;2.00
5930;DHT22;2990;48.746;9.236;2023-04-25T08:31:54;6.90;8.70
5930;DHT22;2990;48.746;9.236;2023-04-25T08:34:20;6.90;16.60
5930;DHT22;2990;48.746;9.236;2023-04-25T08:36:46;6.80;30.40
5930;DHT22;2990;48.746;9.236;2023-04-25T08:39:11;6.80;45.20
5930;DHT22;2990;48.746;9.236;2023-04-25T08:41:38;6.80;70.00
5930;DHT22;2990;48.746;9.236;2023-04-25T08:44:05;6.80;93.50
5930;DHT22;2990;48.746;9.236;2023-04-25T08:46:31;6.80;99.90
5930;DHT22;2990;48.746;9.236;2023-04-25T08:49:01;6.80;99.90
5930;DHT22;2990;48.746;9.236;2023-04-25T08:54:49;6.90;99.90
5930;DHT22;2990;48.746;9.236;2023-04-25T08:57:17;6.80;99.90
5930;DHT22;2990;48.746;9.236;2023-04-25T08:59:44;6.80;99.90
5930;DHT22;2990;48.746;9.236;2023-04-25T09:02:11;6.90;99.90
5930;DHT22;2990;48.746;9.236;2023-04-25T09:04:43;6.90;99.90
5930;DHT22;2990;48.746;9.236;2023-04-25T09:07:09;6.90;99.90
5930;DHT22;2990;48.746;9.236;2023-04-25T09:09:34;6.80;99.90
5930;DHT22;2990;48.746;9.236;2023-04-25T09:12:01;6.80;99.90
5930;DHT22;2990;48.746;9.236;2023-04-25T09:14:27;6.80;99.90
5930;DHT22;2990;48.746;9.236;2023-04-25T09:19:26;6.80;99.90
5930;DHT22;2990;48.746;9.236;2023-04-25T09:21:57;6.70;99.90
5930;DHT22;2990;48.746;9.236;2023-04-25T09:24:34;6.80;99.90
5930;DHT22;2990;48.746;9.236;2023-04-25T09:27:04;6.80;99.90
5930;DHT22;2990;48.746;9.236;2023-04-25T09:29:35;6.80;99.90
5930;DHT22;2990;48.746;9.236;2023-04-25T09:32:30;6.80;99.90
5930;DHT22;2990;48.746;9.236;2023-04-25T09:34:57;6.80;99.90
5930;DHT22;2990;48.746;9.236;2023-04-25T09:37:24;6.80;99.90
5930;DHT22;2990;48.746;9.236;2023-04-25T09:39:55;6.80;99.90
5930;DHT22;2990;48.746;9.236;2023-04-25T09:42:25;6.70;99.90
5930;DHT22;2990;48.746;9.236;2023-04-25T09:44:55;6.70;99.90
5930;DHT22;2990;48.746;9.236;2023-04-25T09:47:23;6.80;99.90
5930;DHT22;2990;48.746;9.236;2023-04-25T09:49:49;6.80;99.90
5930;DHT22;2990;48.746;9.236;2023-04-25T09:52:20;6.80;99.90
5930;DHT22;2990;48.746;9.236;2023-04-25T09:54:47;6.80;99.90
5930;DHT22;2990;48.746;9.236;2023-04-25T09:57:15;6.80;99.90
5930;DHT22;2990;48.746;9.236;2023-04-25T09:59:47;6.80;99.90
5930;DHT22;2990;48.746;9.236;2023-04-25T10:02:14;6.80;99.90
5930;DHT22;2990;48.746;9.236;2023-04-25T10:04:41;6.80;99.90
5930;DHT22;2990;48.746;9.236;2023-04-25T10:07:08;6.70;99.90
5930;DHT22;2990;48.746;9.236;2023-04-25T10:09:36;6.70;99.90
5930;DHT22;2990;48.746;9.236;2023-04-25T10:12:03;6.60;99.90
5930;DHT22;2990;48.746;9.236;2023-04-25T10:14:31;6.50;99.90
5930;DHT22;2990;48.746;9.236;2023-04-25T10:17:00;6.50;99.90
5930;DHT22;2990;48.746;9.236;2023-04-25T10:19:26;6.50;99.90
5930;DHT22;2990;48.746;9.236;2023-04-25T10:24:58;6.50;99.90
5930;DHT22;2990;48.746;9.236;2023-04-25T10:27:26;6.50;99.90
5930;DHT22;2990;48.746;9.236;2023-04-25T10:30:09;6.50;99.90
5930;DHT22;2990;48.746;9.236;2023-04-25T10:32:37;6.40;99.90
5930;DHT22;2990;48.746;9.236;2023-04-25T10:38:19;6.30;99.90
5930;DHT22;2990;48.746;9.236;2023-04-25T10:41:18;6.20;99.90
5930;DHT22;2990;48.746;9.236;2023-04-25T10:43:45;6.20;99.90
5930;DHT22;2990;48.746;9.236;2023-04-25T10:46:28;6.20;99.90
5930;DHT22;2990;48.746;9.236;2023-04-25T10:48:58;6.20;99.90
5930;DHT22;2990;48.746;9.236;2023-04-25T10:51:29;6.10;99.90
5930;DHT22;2990;48.746;9.236;2023-04-25T10:54:00;6.20;99.90
5930;DHT22;2990;48.746;9.236;2023-04-25T11:01:36;6.10;99.90
5930;DHT22;2990;48.746;9.236;2023-04-25T11:04:02;6.10;99.90
5930;DHT22;2990;48.746;9.236;2023-04-25T11:06:42;6.20;99.90
5930;DHT22;2990;48.746;9.236;2023-04-25T11:09:12;6.20;99.90
5930;DHT22;2990;48.746;9.236;2023-04-25T11:11:40;6.10;99.90
5930;DHT22;2990;48.746;9.236;2023-04-25T11:14:06;6.10;99.90
5930;DHT22;2990;48.746;9.236;2023-04-25T11:16:32;6.10;99.90
5930;DHT22;2990;48.746;9.236;2023-04-25T11:18:58;6.10;99.90
5930;DHT22;2990;48.746;9.236;2023-04-25T11:21:25;6.10;99.90
5930;DHT22;2990;48.746;9.236;2023-04-25T11:23:51;6.00;99.90
5930;DHT22;2990;48.746;9.236;2023-04-25T11:26:19;5.90;99.90
5930;DHT22;2990;48.746;9.236;2023-04-25T11:28:45;5.90;99.90
5930;DHT22;2990;48.746;9.236;2023-04-25T11:31:12;6.00;99.90
5930;DHT22;2990;48.746;9.236;2023-04-25T11:33:37;6.00;99.90
5930;DHT22;2990;48.746;9.236;2023-04-25T11:36:03;6.00;99.90
5930;DHT22;2990;48.746;9.236;2023-04-25T11:38:29;6.10;99.90
5930;DHT22;2990;48.746;9.236;2023-04-25T11:40:55;6.10;99.90
5930;DHT22;2990;48.746;9.236;2023-04-25T11:43:22;6.20;99.90
5930;DHT22;2990;48.746;9.236;2023-04-25T11:45:51;6.40;99.90
5930;DHT22;2990;48.746;9.236;2023-04-25T11:48:17;6.50;99.90
5930;DHT22;2990;48.746;9.236;2023-04-25T11:50:43;6.50;99.90
5930;DHT22;2990;48.746;9.236;2023-04-25T11:56:31;6.60;99.90
5930;DHT22;2990;48.746;9.236;2023-04-25T11:59:05;6.70;99.90
5930;DHT22;2990;48.746;9.236;2023-04-25T12:01:33;6.80;99.90
5930;DHT22;2990;48.746;9.236;2023-04-25T12:04:13;6.80;99.90
5930;DHT22;2990;48.746;9.236;2023-04-25T12:06:41;7.10;99.90
5930;DHT22;2990;48.746;9.236;2023-04-25T12:09:11;6.80;99.90
5930;DHT22;2990;48.746;9.236;2023-04-25T12:11:42;6.80;99.90
5930;DHT22;2990;48.746;9.236;2023-04-25T12:14:11;6.90;99.90
5930;DHT22;2990;48.746;9.236;2023-04-25T12:16:42;6.80;99.90
5930;DHT22;2990;48.746;9.236;2023-04-25T12:19:07;6.70;99.90
5930;DHT22;2990;48.746;9.236;2023-04-25T12:21:33;6.70;99.90
5930;DHT22;2990;48.746;9.236;2023-04-25T12:24:13;6.80;99.90
5930;DHT22;2990;48.746;9.236;2023-04-25T12:26:55;6.90;99.90
5930;DHT22;2990;48.746;9.236;2023-04-25T12:29:25;7.00;99.90
5930;DHT22;2990;48.746;9.236;2023-04-25T12:31:52;6.90;99.90
5930;DHT22;2990;48.746;9.236;2023-04-25T12:34:21;6.90;99.90
5930;DHT22;2990;48.746;9.236;2023-04-25T12:36:47;7.00;99.90
5930;DHT22;2990;48.746;9.236;2023-04-25T12:39:23;6.80;88.60
5930;DHT22;2990;48.746;9.236;2023-04-25T12:41:50;6.70;22.80
5930;DHT22;2990;48.746;9.236;2023-04-25T12:44:16;6.80;99.90
5930;DHT22;2990;48.746;9.236;2023-04-25T12:46:42;6.90;99.90
5930;DHT22;2990;48.746;9.236;2023-04-25T12:49:08;7.00;99.90
5930;DHT22;2990;48.746;9.236;2023-04-25T12:51:34;7.10;99.90
5930;DHT22;2990;48.746;9.236;2023-04-25T12:54:01;7.20;99.90
5930;DHT22;2990;48.746;9.236;2023-04-25T12:56:30;7.30;99.90
5930;DHT22;2990;48.746;9.236;2023-04-25T12:58:56;7.40;99.90
5930;DHT22;2990;48.746;9.236;2023-04-25T13:01:22;7.50;99.90
5930;DHT22;2990;48.746;9.236;2023-04-25T13:03:48;7.60;99.90
5930;DHT22;2990;48.746;9.236;2023-04-25T13:06:15;7.70;96.40
5930;DHT22;2990;48.746;9.236;2023-04-25T13:08:41;7.70;1.00
5930;DHT22;2990;48.746;9.236;2023-04-25T13:11:07;8.00;61.50
5930;DHT22;2990;48.746;9.236;2023-04-25T13:13:33;8.30;37.10
5930;DHT22;2990;48.746;9.236;2023-04-25T13:16:01;8.50;1.00
5930;DHT22;2990;48.746;9.236;2023-04-25T13:18:27;8.70;1.00
5930;DHT22;2990;48.746;9.236;2023-04-25T13:20:53;9.00;1.00
5930;DHT22;2990;48.746;9.236;2023-04-25T13:23:19;9.30;1.00
5930;DHT22;2990;48.746;9.236;2023-04-25T13:25:46;9.60;1.00
5930;DHT22;2990;48.746;9.236;2023-04-25T13:28:11;9.90;1.00
5930;DHT22;2990;48.746;9.236;2023-04-25T13:30:37;9.90;99.90
5930;DHT22;2990;48.746;9.236;2023-04-25T13:33:02;9.80;99.90
5930;DHT22;2990;48.746;9.236;2023-04-25T13:35:29;9.80;99.90
5930;DHT22;2990;48.746;9.236;2023-04-25T13:41:17;9.90;99.90
5930;DHT22;2990;48.746;9.236;2023-04-25T13:43:45;9.80;1.00
5930;DHT22;2990;48.746;9.236;2023-04-25T13:46:12;9.70;1.00
5930;DHT22;2990;48.746;9.236;2023-04-25T13:48:38;9.50;1.00
5930;DHT22;2990;48.746;9.236;2023-04-25T13:51:04;9.30;65.80
5930;DHT22;2990;48.746;9.236;2023-04-25T13:53:29;9.30;99.90
5930;DHT22;2990;48.746;9.236;2023-04-25T13:55:55;9.40;99.90
5930;DHT22;2990;48.746;9.236;2023-04-25T13:58:21;9.50;99.90
5930;DHT22;2990;48.746;9.236;2023-04-25T14:00:46;9.50;99.90
5930;DHT22;2990;48.746;9.236;2023-04-25T14:03:12;9.50;99.90
5930;DHT22;2990;48.746;9.236;2023-04-25T14:05:37;9.50;99.90
5930;DHT22;2990;48.746;9.236;2023-04-25T14:08:08;9.40;99.90
5930;DHT22;2990;48.746;9.236;2023-04-25T14:10:34;9.30;99.90
5930;DHT22;2990;48.746;9.236;2023-04-25T14:13:00;9.30;99.90
5930;DHT22;2990;48.746;9.236;2023-04-25T14:15:26;9.50;1.00
5930;DHT22;2990;48.746;9.236;2023-04-25T14:17:52;9.50;99.90
5930;DHT22;2990;48.746;9.236;2023-04-25T14:20:17;9.60;99.90
5930;DHT22;2990;48.746;9.236;2023-04-25T14:22:46;9.60;99.90
5930;DHT22;2990;48.746;9.236;2023-04-25T14:25:12;9.60;99.90
5930;DHT22;2990;48.746;9.236;2023-04-25T14:27:38;9.60;99.90
5930;DHT22;2990;48.746;9.236;2023-04-25T14:30:03;9.70;99.90
5930;DHT22;2990;48.746;9.236;2023-04-25T14:32:30;9.90;99.90
5930;DHT22;2990;48.746;9.236;2023-04-25T14:34:57;10.00;1.00
5930;DHT22;2990;48.746;9.236;2023-04-25T14:37:22;10.20;99.90
5930;DHT22;2990;48.746;9.236;2023-04-25T14:39:48;10.20;99.90
5930;DHT22;2990;48.746;9.236;2023-04-25T14:42:13;10.40;1.00
5930;DHT22;2990;48.746;9.236;2023-04-25T14:48:01;10.90;99.90
5930;DHT22;2990;48.746;9.236;2023-04-25T14:50:27;11.00;1.00
5930;DHT22;2990;48.746;9.236;2023-04-25T14:52:52;11.10;1.00
5930;DHT22;2990;48.746;9.236;2023-04-25T14:55:28;10.90;1.00
5930;DHT22;2990;48.746;9.236;2023-04-25T14:57:54;10.70;99.90
5930;DHT22;2990;48.746;9.236;2023-04-25T15:00:21;10.60;1.00
5930;DHT22;2990;48.746;9.236;2023-04-25T15:02:48;10.30;1.00
5930;DHT22;2990;48.746;9.236;2023-04-25T15:05:14;10.10;99.90
5930;DHT22;2990;48.746;9.236;2023-04-25T15:07:40;10.00;1.00
5930;DHT22;2990;48.746;9.236;2023-04-25T15:10:10;10.00;99.90
5930;DHT22;2990;48.746;9.236;2023-04-25T15:12:41;9.90;1.00
5930;DHT22;2990;48.746;9.236;2023-04-25T15:15:08;9.90;1.00
5930;DHT22;2990;48.746;9.236;2023-04-25T15:17:43;10.10;99.90
5930;DHT22;2990;48.746;9.236;2023-04-25T15:20:10;10.20;1.00
5930;DHT22;2990;48.746;9.236;2023-04-25T15:22:38;10.40;1.00
5930;DHT22;2990;48.746;9.236;2023-04-25T15:25:04;10.50;1.00
5930;DHT22;2990;48.746;9.236;2023-04-25T15:27:30;10.70;99.90
5930;DHT22;2990;48.746;9.236;2023-04-25T15:29:56;10.70;99.90
5930;DHT22;2990;48.746;9.236;2023-04-25T15:32:21;10.50;1.00
5930;DHT22;2990;48.746;9.236;2023-04-25T15:34:47;10.30;99.90
5930;DHT22;2990;48.746;9.236;2023-04-25T15:37:36;10.20;56.80
5930;DHT22;2990;48.746;9.236;2023-04-25T15:40:08;9.90;99.90
5930;DHT22;2990;48.746;9.236;2023-04-25T15:42:38;9.60;1.00
5930;DHT22;2990;48.746;9.236;2023-04-25T15:45:09;9.50;1.00
5930;DHT22;2990;48.746;9.236;2023-04-25T15:47:37;9.40;99.90
5930;DHT22;2990;48.746;9.236;2023-04-25T15:50:04;9.60;99.90
5930;DHT22;2990;48.746;9.236;2023-04-25T15:52:31;9.70;1.00
5930;DHT22;2990;48.746;9.236;2023-04-25T15:55:04;9.60;99.90
5930;DHT22;2990;48.746;9.236;2023-04-25T15:57:31;9.50;1.00
5930;DHT22;2990;48.746;9.236;2023-04-25T15:59:57;9.40;99.90
5930;DHT22;2990;48.746;9.236;2023-04-25T16:02:22;9.30;1.00
5930;DHT22;2990;48.746;9.236;2023-04-25T16:04:48;9.20;7.70
5930;DHT22;2990;48.746;9.236;2023-04-25T16:07:14;9.20;1.00
5930;DHT22;2990;48.746;9.236;2023-04-25T16:09:39;9.20;1.00
5930;DHT22;2990;48.746;9.236;2023-04-25T16:12:07;9.10;99.90
5930;DHT22;2990;48.746;9.236;2023-04-25T16:14:33;9.10;1.00
5930;DHT22;2990;48.746;9.236;2023-04-25T16:16:58;9.10;1.00
5930;DHT22;2990;48.746;9.236;2023-04-25T16:19:24;9.00;99.90
5930;DHT22;2990;48.746;9.236;2023-04-25T16:21:52;8.90;99.90
5930;DHT22;2990;48.746;9.236;2023-04-25T16:24:20;8.90;1.00
5930;DHT22;2990;48.746;9.236;2023-04-25T16:26:46;8.70;1.00
5930;DHT22;2990;48.746;9.236;2023-04-25T16:29:12;8.60;1.00
5930;DHT22;2990;48.746;9.236;2023-04-25T16:31:40;8.60;99.90
5930;DHT22;2990;48.746;9.236;2023-04-25T16:34:07;8.50;99.90
5930;DHT22;2990;48.746;9.236;2023-04-25T16:36:32;8.50;22.40
5930;DHT22;2990;48.746;9.236;2023-04-25T16:38:58;8.50;99.90
5930;DHT22;2990;48.746;9.236;2023-04-25T16:41:26;8.40;99.90
5930;DHT22;2990;48.746;9.236;2023-04-25T16:43:52;8.40;99.90
5930;DHT22;2990;48.746;9.236;2023-04-25T16:46:17;8.40;1.00
5930;DHT22;2990;48.746;9.236;2023-04-25T16:48:44;8.60;1.00